首页
METAR-TAF:

METAR-TAF

机场 :

巴馬科國際機場

巴馬科, 马里共和国

纬度: 12-32N, 经度: 007-57W, 海拔: 380米

当前天气观测

该预报发布于35分钟前的23:30 UTC
风速5节,风向西南
温度 28°C
湿度 70%
气压 1014 hPa
能見度: 8000

METAR: GABS 192330Z 23005KT 8000 NSC 28/22 Q1014 NOSIG

时间: 00:05 (00:05 UTC)

预报

该预报发布于1小时和5分钟前的23:00 UTC
预报有效从20日的 00点(UTC)到 21日的 06点(UTC)
风速10节,风向西南
能见度10公里或以上
少量云层高于3000英尺
几率 40% :
短暂存在
从 20日的 22点(UTC)到 21日的 04点(UTC)
风速20节,风向,有时为45节阵风
能見度: 3000
散云层高于2600英尺
散云层高于3000英尺, 积雨云.
高吹尘, 雷暴, 雨

TAF: GABS 192300Z 2000/2106 22010KT 9999 FEW030 PROB40 TEMPO 2022/2104 08020G45KT 3000 BLDU TSRA SCT026 SCT030CB

超过4000个机场的气象观测和天气预报(METAR&TAF报告)。

可查询的气象台以黄色和红色小点在地图上表示。

将鼠标移到小点上方,可查看气象台名称。

然后点击查看天气观测和预报。

如需切换地图:点击带黑十字的绿色按钮放大地图;点击带横线的绿色按钮缩小地图;或者点击绿色箭头查看邻近地区的地图。


METAR-TAF: